createdAt,value
2018-03-28T00:00:36.145Z,7.80
2018-03-28T00:03:04.426Z,7.90
2018-03-28T00:05:32.695Z,7.90
2018-03-28T00:08:01.167Z,8.00
2018-03-28T00:10:29.442Z,8.00
2018-03-28T00:12:57.752Z,8.00
2018-03-28T00:15:26.044Z,8.00
2018-03-28T00:17:54.648Z,8.10
2018-03-28T00:20:22.932Z,8.10
2018-03-28T00:22:51.235Z,8.10
2018-03-28T00:25:19.545Z,8.10
2018-03-28T00:27:48.621Z,8.10
2018-03-28T00:30:16.942Z,8.10
2018-03-28T00:32:45.238Z,8.10
2018-03-28T00:35:13.519Z,8.00
2018-03-28T00:37:41.839Z,8.00
2018-03-28T00:40:10.141Z,8.00
2018-03-28T00:42:38.430Z,8.00
2018-03-28T00:45:07.462Z,8.00
2018-03-28T00:47:36.072Z,8.00
2018-03-28T00:50:04.340Z,8.00
2018-03-28T00:52:32.613Z,8.00
2018-03-28T00:55:00.919Z,8.00
2018-03-28T00:57:29.193Z,8.00
2018-03-28T00:59:57.501Z,8.00
2018-03-28T01:02:25.851Z,7.90
2018-03-28T01:04:54.146Z,7.90
2018-03-28T01:07:23.198Z,7.80
2018-03-28T01:09:51.826Z,7.80
2018-03-28T01:12:20.856Z,7.80
2018-03-28T01:14:49.153Z,7.80
2018-03-28T01:17:17.447Z,7.80
2018-03-28T01:19:45.749Z,7.80
2018-03-28T01:22:14.825Z,7.70
2018-03-28T01:24:43.109Z,7.70
2018-03-28T01:27:12.193Z,7.70
2018-03-28T01:29:40.462Z,7.70
2018-03-28T01:32:08.781Z,7.80
2018-03-28T01:34:37.474Z,7.80
2018-03-28T01:37:06.856Z,7.70
2018-03-28T01:39:35.169Z,7.70
2018-03-28T01:42:03.458Z,7.80
2018-03-28T01:44:31.757Z,7.70
2018-03-28T01:47:00.040Z,7.70
2018-03-28T01:49:28.431Z,7.80
2018-03-28T01:51:56.689Z,7.80
2018-03-28T01:54:25.205Z,7.80
2018-03-28T01:56:53.441Z,7.70
2018-03-28T01:59:21.732Z,7.80
2018-03-28T02:01:50.025Z,7.70
2018-03-28T02:04:18.354Z,7.70
2018-03-28T02:06:47.449Z,7.70
2018-03-28T02:09:15.766Z,7.70
2018-03-28T02:11:44.081Z,7.70
2018-03-28T02:14:12.362Z,7.70
2018-03-28T02:16:40.677Z,7.60
2018-03-28T02:19:08.993Z,7.60
2018-03-28T02:21:37.351Z,7.60
2018-03-28T02:24:05.626Z,7.60
2018-03-28T02:26:33.970Z,7.60
2018-03-28T02:29:03.110Z,7.60
2018-03-28T02:31:31.414Z,7.60
2018-03-28T02:33:59.738Z,7.60
2018-03-28T02:36:28.792Z,7.60
2018-03-28T02:38:57.105Z,7.60
2018-03-28T02:41:25.378Z,7.70
2018-03-28T02:43:54.434Z,7.60
2018-03-28T02:46:22.750Z,7.60
2018-03-28T02:48:51.858Z,7.60
2018-03-28T02:51:21.731Z,7.50
2018-03-28T02:53:50.010Z,7.50
2018-03-28T02:56:18.613Z,7.60
2018-03-28T02:58:46.903Z,7.50
2018-03-28T03:01:15.981Z,7.50
2018-03-28T03:03:44.271Z,7.50
2018-03-28T03:06:12.546Z,7.50
2018-03-28T03:08:41.646Z,7.50
2018-03-28T03:11:09.921Z,7.50
2018-03-28T03:13:38.987Z,7.50
2018-03-28T03:16:07.302Z,7.50
2018-03-28T03:18:36.341Z,7.40
2018-03-28T03:21:04.651Z,7.40
2018-03-28T03:23:32.932Z,7.40
2018-03-28T03:26:01.235Z,7.40
2018-03-28T03:28:30.276Z,7.40
2018-03-28T03:30:58.987Z,7.40
2018-03-28T03:33:27.274Z,7.40
2018-03-28T03:35:55.551Z,7.30
2018-03-28T03:38:23.838Z,7.30
2018-03-28T03:40:52.882Z,7.30
2018-03-28T03:43:21.178Z,7.30
2018-03-28T03:45:49.465Z,7.30
2018-03-28T03:48:18.192Z,7.20
2018-03-28T03:50:47.284Z,7.20
2018-03-28T03:53:16.397Z,7.10
2018-03-28T03:55:45.439Z,7.10
2018-03-28T03:58:13.925Z,7.10
2018-03-28T04:00:42.209Z,7.10
2018-03-28T04:03:10.501Z,7.10
2018-03-28T04:05:38.853Z,7.10
2018-03-28T04:08:07.135Z,7.10
2018-03-28T04:10:35.739Z,7.10
2018-03-28T04:13:04.016Z,7.10
2018-03-28T04:15:32.278Z,7.10
2018-03-28T04:18:00.582Z,7.10
2018-03-28T04:20:28.867Z,7.10
2018-03-28T04:22:58.460Z,7.10
2018-03-28T04:25:26.757Z,7.10
2018-03-28T04:27:55.042Z,7.20
2018-03-28T04:30:24.110Z,7.20
2018-03-28T04:32:52.390Z,7.20
2018-03-28T04:35:20.693Z,7.20
2018-03-28T04:37:49.730Z,7.10
2018-03-28T04:40:18.042Z,7.10
2018-03-28T04:42:46.380Z,7.20
2018-03-28T04:45:14.658Z,7.20
2018-03-28T04:47:42.986Z,7.20
2018-03-28T04:50:11.254Z,7.20
2018-03-28T04:52:39.574Z,7.20
2018-03-28T04:55:07.902Z,7.20
2018-03-28T04:57:36.202Z,7.10
2018-03-28T05:00:04.495Z,7.10
2018-03-28T05:02:33.893Z,7.10
2018-03-28T05:05:02.934Z,7.10
2018-03-28T05:07:31.220Z,7.10
2018-03-28T05:09:59.535Z,7.10
2018-03-28T05:12:28.594Z,7.10
2018-03-28T05:14:56.902Z,7.10
2018-03-28T05:17:25.190Z,7.10
2018-03-28T05:19:53.503Z,7.10
2018-03-28T05:22:23.490Z,7.20
2018-03-28T05:24:52.533Z,7.20
2018-03-28T05:27:20.875Z,7.20
2018-03-28T05:29:49.915Z,7.20
2018-03-28T05:32:18.252Z,7.20
2018-03-28T05:34:46.603Z,7.30
2018-03-28T05:37:14.920Z,7.30
2018-03-28T05:39:43.222Z,7.40
2018-03-28T05:42:11.898Z,7.40
2018-03-28T05:44:40.190Z,7.40
2018-03-28T05:47:12.857Z,7.40
2018-03-28T05:49:41.136Z,7.40
2018-03-28T05:52:09.477Z,7.40
2018-03-28T05:54:37.758Z,7.40
2018-03-28T05:57:07.243Z,7.40
2018-03-28T05:59:35.521Z,7.40
2018-03-28T06:02:03.815Z,7.50
2018-03-28T06:04:33.294Z,7.50
2018-03-28T06:07:01.597Z,7.50
2018-03-28T06:09:29.904Z,7.50
2018-03-28T06:11:58.216Z,7.60
2018-03-28T06:14:26.801Z,7.50
2018-03-28T06:16:55.136Z,7.60
2018-03-28T06:19:23.423Z,7.60
2018-03-28T06:21:51.720Z,7.60
2018-03-28T06:24:19.998Z,7.70
2018-03-28T06:26:48.293Z,7.60
2018-03-28T06:29:16.563Z,7.70
2018-03-28T06:31:44.873Z,7.70
2018-03-28T06:34:13.160Z,7.80
2018-03-28T06:36:41.479Z,7.80
2018-03-28T06:39:09.772Z,7.80
2018-03-28T06:41:38.048Z,7.90
2018-03-28T06:44:06.446Z,7.90
2018-03-28T06:46:34.728Z,8.00
2018-03-28T06:49:03.025Z,8.10
2018-03-28T06:51:31.325Z,8.10
2018-03-28T06:54:00.409Z,8.20
2018-03-28T06:56:28.780Z,8.20
2018-03-28T06:58:57.066Z,8.20
2018-03-28T07:01:29.996Z,8.30
2018-03-28T07:03:58.341Z,8.30
2018-03-28T07:06:27.397Z,8.40
2018-03-28T07:08:55.692Z,8.40
2018-03-28T07:11:23.974Z,8.50
2018-03-28T07:13:52.263Z,8.50
2018-03-28T07:16:20.730Z,8.50
2018-03-28T07:18:48.991Z,8.60
2018-03-28T07:21:17.306Z,8.60
2018-03-28T07:23:45.591Z,8.60
2018-03-28T07:26:14.672Z,8.70
2018-03-28T07:28:43.721Z,8.90
2018-03-28T07:31:11.998Z,8.90
2018-03-28T07:33:40.311Z,8.60
2018-03-28T07:36:08.591Z,8.60
2018-03-28T07:38:36.969Z,8.60
2018-03-28T07:41:05.267Z,8.70
2018-03-28T07:43:34.320Z,8.70
2018-03-28T07:46:02.642Z,8.70
2018-03-28T07:48:31.699Z,8.80
2018-03-28T07:50:59.994Z,8.70
2018-03-28T07:53:28.266Z,8.80
2018-03-28T07:55:56.957Z,8.90
2018-03-28T07:58:25.237Z,9.00
2018-03-28T08:00:54.290Z,9.10
2018-03-28T08:03:22.592Z,9.10
2018-03-28T08:05:50.902Z,9.30
2018-03-28T08:08:19.975Z,9.40
2018-03-28T08:10:48.358Z,9.40
2018-03-28T08:13:16.641Z,9.50
2018-03-28T08:15:44.910Z,9.50
2018-03-28T08:18:13.494Z,9.60
2018-03-28T08:20:41.770Z,9.60
2018-03-28T08:23:10.057Z,9.60
2018-03-28T08:25:38.372Z,9.60
2018-03-28T08:28:07.440Z,9.60
2018-03-28T08:30:36.130Z,9.60
2018-03-28T08:33:05.295Z,9.70
2018-03-28T08:35:33.584Z,9.70
2018-03-28T08:38:01.911Z,9.70
2018-03-28T08:40:30.987Z,9.80
2018-03-28T08:43:00.383Z,9.80
2018-03-28T08:45:28.683Z,9.80
2018-03-28T08:47:57.747Z,9.90
2018-03-28T08:50:26.046Z,9.90
2018-03-28T08:52:55.102Z,10.00
2018-03-28T08:55:23.725Z,10.00
2018-03-28T08:57:52.822Z,10.00
2018-03-28T09:00:21.103Z,10.00
2018-03-28T09:02:49.423Z,10.00
2018-03-28T09:05:17.707Z,10.10
2018-03-28T09:07:46.001Z,9.90
2018-03-28T09:10:14.269Z,10.10
2018-03-28T09:12:43.027Z,10.00
2018-03-28T09:15:11.320Z,10.00
2018-03-28T09:17:39.604Z,10.00
2018-03-28T09:20:08.024Z,10.00
2018-03-28T09:22:36.391Z,10.00
2018-03-28T09:25:04.716Z,10.00
2018-03-28T09:27:33.007Z,10.00
2018-03-28T09:30:01.311Z,10.10
2018-03-28T09:32:29.599Z,10.10
2018-03-28T09:34:58.002Z,10.20
2018-03-28T09:37:26.999Z,10.30
2018-03-28T09:39:55.577Z,10.20
2018-03-28T09:42:23.877Z,10.30
2018-03-28T09:44:52.953Z,10.30
2018-03-28T09:47:21.258Z,10.30
2018-03-28T09:49:49.546Z,10.40
2018-03-28T09:52:17.922Z,10.40
2018-03-28T09:54:46.983Z,10.40
2018-03-28T09:57:15.295Z,10.30
2018-03-28T09:59:43.633Z,10.40
2018-03-28T10:02:12.286Z,10.40
2018-03-28T10:04:46.340Z,10.40
2018-03-28T10:07:15.029Z,10.40
2018-03-28T10:09:43.362Z,10.40
2018-03-28T10:12:11.651Z,10.40
2018-03-28T10:14:40.082Z,10.40
2018-03-28T10:17:09.154Z,10.50
2018-03-28T10:19:37.462Z,10.50
2018-03-28T10:22:05.759Z,10.50
2018-03-28T10:24:34.185Z,10.50
2018-03-28T10:27:02.523Z,10.40
2018-03-28T10:29:30.835Z,10.40
2018-03-28T10:31:59.147Z,10.40
2018-03-28T10:34:27.745Z,10.40
2018-03-28T10:36:56.051Z,10.50
2018-03-28T10:39:24.414Z,10.50
2018-03-28T10:41:53.487Z,10.60
2018-03-28T10:44:21.765Z,10.60
2018-03-28T10:46:50.137Z,10.60
2018-03-28T10:49:18.532Z,10.60
2018-03-28T10:51:46.816Z,10.70
2018-03-28T10:54:15.857Z,10.60
2018-03-28T10:56:44.473Z,10.60
2018-03-28T10:59:12.895Z,10.60
2018-03-28T11:01:41.172Z,10.60
2018-03-28T11:04:10.302Z,10.70
2018-03-28T11:06:38.629Z,10.70
2018-03-28T11:09:06.908Z,10.70
2018-03-28T11:11:35.975Z,10.80
2018-03-28T11:14:04.305Z,10.80
2018-03-28T11:16:32.663Z,10.80
2018-03-28T11:19:01.740Z,10.80
2018-03-28T11:21:30.039Z,10.80
2018-03-28T11:23:58.345Z,10.80
2018-03-28T11:26:26.652Z,10.80
2018-03-28T11:28:54.995Z,10.70
2018-03-28T11:31:23.592Z,10.70
2018-03-28T11:33:52.183Z,10.70
2018-03-28T11:36:21.371Z,10.70
2018-03-28T11:38:49.701Z,10.60
2018-03-28T11:41:19.199Z,10.60
2018-03-28T11:43:47.549Z,10.60
2018-03-28T11:46:15.912Z,10.60
2018-03-28T11:48:44.195Z,10.70
2018-03-28T11:51:12.535Z,10.80
2018-03-28T11:53:40.818Z,10.90
2018-03-28T11:56:12.277Z,11.00
2018-03-28T11:58:40.593Z,11.00
2018-03-28T12:01:08.891Z,11.00
2018-03-28T12:03:37.211Z,11.10
2018-03-28T12:06:06.258Z,11.10
2018-03-28T12:08:34.564Z,11.10
2018-03-28T12:11:02.890Z,11.10
2018-03-28T12:13:31.228Z,11.10
2018-03-28T12:15:59.583Z,11.10
2018-03-28T12:18:27.837Z,11.10
2018-03-28T12:20:56.156Z,11.10
2018-03-28T12:23:26.347Z,11.10
2018-03-28T12:25:54.775Z,11.10
2018-03-28T12:28:27.047Z,11.10
2018-03-28T12:30:55.370Z,11.10
2018-03-28T12:33:23.675Z,11.20
2018-03-28T12:35:52.348Z,11.20
2018-03-28T12:38:20.645Z,11.20
2018-03-28T12:40:49.742Z,11.20
2018-03-28T12:43:18.089Z,11.20
2018-03-28T12:45:46.522Z,11.20
2018-03-28T12:48:15.594Z,11.20
2018-03-28T12:50:43.897Z,11.20
2018-03-28T12:53:12.257Z,11.30
2018-03-28T12:55:40.568Z,11.30
2018-03-28T12:58:08.943Z,11.20
2018-03-28T13:00:37.265Z,11.30
2018-03-28T13:03:05.574Z,11.30
2018-03-28T13:05:33.878Z,11.30
2018-03-28T13:08:02.958Z,11.40
2018-03-28T13:10:31.259Z,11.40
2018-03-28T13:13:00.429Z,11.40
2018-03-28T13:15:28.803Z,11.30
2018-03-28T13:17:57.099Z,11.30
2018-03-28T13:20:25.389Z,11.30
2018-03-28T13:22:54.482Z,11.30
2018-03-28T13:25:22.764Z,11.30
2018-03-28T13:27:51.844Z,11.30
2018-03-28T13:30:23.669Z,11.30
2018-03-28T13:32:51.982Z,11.30
2018-03-28T13:35:20.292Z,11.30
2018-03-28T13:37:48.607Z,11.10
2018-03-28T13:40:16.927Z,11.30
2018-03-28T13:42:45.214Z,11.30
2018-03-28T13:45:14.285Z,11.30
2018-03-28T13:47:42.632Z,11.30
2018-03-28T13:50:11.695Z,11.30
2018-03-28T13:52:40.009Z,11.30
2018-03-28T13:55:08.463Z,11.30
2018-03-28T13:57:36.746Z,11.30
2018-03-28T14:00:05.901Z,11.30
2018-03-28T14:02:34.175Z,11.20
2018-03-28T14:05:02.477Z,11.20
2018-03-28T14:07:31.590Z,11.10
2018-03-28T14:09:59.870Z,11.10
2018-03-28T14:12:28.167Z,11.10
2018-03-28T14:14:56.524Z,11.10
2018-03-28T14:17:24.808Z,11.20
2018-03-28T14:19:53.153Z,11.20
2018-03-28T14:22:22.319Z,11.20
2018-03-28T14:24:50.592Z,11.20
2018-03-28T14:27:19.008Z,11.20
2018-03-28T14:29:47.290Z,11.20
2018-03-28T14:32:15.627Z,11.20
2018-03-28T14:34:43.926Z,11.20
2018-03-28T14:37:12.211Z,11.10
2018-03-28T14:39:40.621Z,11.10
2018-03-28T14:42:09.671Z,11.00
2018-03-28T14:44:39.112Z,11.00
2018-03-28T14:47:09.059Z,10.90
2018-03-28T14:49:38.282Z,11.00
2018-03-28T14:52:06.652Z,11.00
2018-03-28T14:54:34.948Z,11.00
2018-03-28T14:57:03.273Z,10.90
2018-03-28T14:59:32.394Z,11.00
2018-03-28T15:02:00.675Z,10.90
2018-03-28T15:04:28.984Z,11.00
2018-03-28T15:06:57.404Z,11.00
2018-03-28T15:09:25.763Z,11.00
2018-03-28T15:11:54.040Z,10.90
2018-03-28T15:14:22.357Z,10.90
2018-03-28T15:16:50.663Z,10.90
2018-03-28T15:19:19.022Z,10.90
2018-03-28T15:21:47.364Z,11.00
2018-03-28T15:24:15.662Z,11.10
2018-03-28T15:26:44.714Z,11.20
2018-03-28T15:29:13.084Z,11.20
2018-03-28T15:31:41.366Z,11.30
2018-03-28T15:34:09.717Z,11.30
2018-03-28T15:36:38.016Z,11.30
2018-03-28T15:39:06.426Z,11.40
2018-03-28T15:41:35.773Z,11.40
2018-03-28T15:44:05.309Z,11.70
2018-03-28T15:46:33.636Z,11.40
2018-03-28T15:49:02.705Z,11.50
2018-03-28T15:51:31.006Z,11.40
2018-03-28T15:54:00.113Z,11.40
2018-03-28T15:56:29.285Z,11.40
2018-03-28T15:58:57.618Z,11.40
2018-03-28T16:01:25.911Z,11.50
2018-03-28T16:03:54.222Z,11.50
2018-03-28T16:06:22.567Z,11.50
2018-03-28T16:08:50.870Z,11.60
2018-03-28T16:11:19.197Z,11.60
2018-03-28T16:13:47.496Z,11.60
2018-03-28T16:16:15.788Z,11.60
2018-03-28T16:18:44.135Z,11.50
2018-03-28T16:21:12.445Z,11.50
2018-03-28T16:23:40.789Z,11.50
2018-03-28T16:26:09.128Z,11.40
2018-03-28T16:28:37.435Z,11.40
2018-03-28T16:31:06.482Z,11.40
2018-03-28T16:33:34.816Z,11.30
2018-03-28T16:36:03.134Z,11.40
2018-03-28T16:38:31.418Z,11.40
2018-03-28T16:40:59.759Z,11.40
2018-03-28T16:43:28.090Z,11.40
2018-03-28T16:45:56.442Z,11.40
2018-03-28T16:48:24.770Z,11.40
2018-03-28T16:50:53.061Z,11.40
2018-03-28T16:53:22.158Z,11.30
2018-03-28T16:55:51.204Z,11.30
2018-03-28T16:58:19.568Z,11.30
2018-03-28T17:00:47.844Z,11.20
2018-03-28T17:03:16.122Z,11.10
2018-03-28T17:05:44.449Z,11.00
2018-03-28T17:08:12.780Z,11.00
2018-03-28T17:10:41.828Z,10.80
2018-03-28T17:13:10.886Z,10.70
2018-03-28T17:15:39.247Z,10.70
2018-03-28T17:18:07.532Z,10.70
2018-03-28T17:20:35.850Z,10.50
2018-03-28T17:23:04.186Z,10.40
2018-03-28T17:25:32.476Z,10.30
2018-03-28T17:28:00.757Z,10.30
2018-03-28T17:30:29.124Z,10.20
2018-03-28T17:32:57.514Z,10.10
2018-03-28T17:35:25.836Z,10.10
2018-03-28T17:37:54.927Z,10.00
2018-03-28T17:40:24.029Z,10.00
2018-03-28T17:42:53.106Z,10.00
2018-03-28T17:45:21.529Z,10.00
2018-03-28T17:47:49.878Z,9.90
2018-03-28T17:50:18.172Z,9.90
2018-03-28T17:52:47.251Z,9.90
2018-03-28T17:55:15.544Z,9.70
2018-03-28T17:57:44.588Z,9.80
2018-03-28T18:00:12.961Z,9.80
2018-03-28T18:02:41.290Z,9.80
2018-03-28T18:05:09.575Z,9.80
2018-03-28T18:07:38.649Z,9.80
2018-03-28T18:10:06.960Z,9.80
2018-03-28T18:12:36.051Z,9.80
2018-03-28T18:15:05.089Z,9.80
2018-03-28T18:17:33.373Z,9.80
2018-03-28T18:20:01.719Z,9.80
2018-03-28T18:22:30.011Z,9.80
2018-03-28T18:24:58.338Z,9.80
2018-03-28T18:27:26.674Z,10.00
2018-03-28T18:29:54.977Z,9.80
2018-03-28T18:32:23.303Z,9.70
2018-03-28T18:34:51.780Z,9.70
2018-03-28T18:37:20.826Z,9.70
2018-03-28T18:39:49.110Z,9.70
2018-03-28T18:42:17.466Z,9.70
2018-03-28T18:44:45.790Z,9.60
2018-03-28T18:47:14.125Z,9.60
2018-03-28T18:49:42.558Z,9.60
2018-03-28T18:52:10.909Z,9.60
2018-03-28T18:54:39.219Z,9.60
2018-03-28T18:57:08.271Z,9.60
2018-03-28T18:59:36.644Z,9.50
2018-03-28T19:02:04.986Z,9.50
2018-03-28T19:04:34.228Z,9.50
2018-03-28T19:07:02.718Z,9.50
2018-03-28T19:09:32.792Z,9.50
2018-03-28T19:12:01.238Z,9.50
2018-03-28T19:14:29.660Z,9.50
2018-03-28T19:16:57.991Z,9.50
2018-03-28T19:19:26.358Z,9.50
2018-03-28T19:21:54.679Z,9.50
2018-03-28T19:24:23.976Z,9.50
2018-03-28T19:26:52.419Z,9.50
2018-03-28T19:29:20.722Z,9.50
2018-03-28T19:31:49.097Z,9.60
2018-03-28T19:34:17.481Z,9.50
2018-03-28T19:36:46.144Z,9.50
2018-03-28T19:39:14.562Z,9.50
2018-03-28T19:41:42.907Z,9.50
2018-03-28T19:44:11.201Z,9.60
2018-03-28T19:46:39.571Z,9.60
2018-03-28T19:49:07.870Z,9.60
2018-03-28T19:51:36.173Z,9.60
2018-03-28T19:54:04.539Z,9.60
2018-03-28T19:56:32.843Z,9.60
2018-03-28T19:59:01.181Z,9.60
2018-03-28T20:01:29.518Z,9.70
2018-03-28T20:03:57.846Z,9.70
2018-03-28T20:06:26.130Z,9.70
2018-03-28T20:08:54.555Z,9.80
2018-03-28T20:11:22.889Z,9.80
2018-03-28T20:13:51.955Z,9.80
2018-03-28T20:16:20.363Z,9.80
2018-03-28T20:18:48.741Z,9.90
2018-03-28T20:21:17.082Z,9.90
2018-03-28T20:23:45.465Z,9.90
2018-03-28T20:26:13.759Z,9.90
2018-03-28T20:28:42.052Z,9.90
2018-03-28T20:31:10.412Z,9.90
2018-03-28T20:33:38.721Z,9.90
2018-03-28T20:36:07.027Z,9.90
2018-03-28T20:38:35.363Z,9.90
2018-03-28T20:41:03.663Z,9.90
2018-03-28T20:43:32.738Z,9.90
2018-03-28T20:46:01.194Z,9.90
2018-03-28T20:48:29.501Z,9.90
2018-03-28T20:50:57.864Z,9.90
2018-03-28T20:53:27.071Z,9.90
2018-03-28T20:55:55.881Z,9.90
2018-03-28T20:58:24.987Z,10.00
2018-03-28T21:00:53.682Z,10.00
2018-03-28T21:03:22.763Z,10.00
2018-03-28T21:05:51.071Z,10.00
2018-03-28T21:08:19.362Z,10.00
2018-03-28T21:10:47.715Z,10.00
2018-03-28T21:13:16.026Z,10.00
2018-03-28T21:15:44.344Z,10.00
2018-03-28T21:18:12.694Z,10.00
2018-03-28T21:20:40.979Z,10.00
2018-03-28T21:23:09.329Z,10.00
2018-03-28T21:25:37.676Z,10.00
2018-03-28T21:28:05.972Z,10.00
2018-03-28T21:30:34.296Z,10.10
2018-03-28T21:33:02.698Z,10.00
2018-03-28T21:35:31.314Z,10.10
2018-03-28T21:37:59.859Z,10.10
2018-03-28T21:40:28.211Z,10.10
2018-03-28T21:42:56.502Z,10.10
2018-03-28T21:45:24.786Z,10.10
2018-03-28T21:47:53.132Z,10.10
2018-03-28T21:50:21.411Z,10.10
2018-03-28T21:52:49.699Z,10.10
2018-03-28T21:55:18.038Z,10.10
2018-03-28T21:57:46.357Z,10.10
2018-03-28T22:00:15.392Z,10.00
2018-03-28T22:02:43.727Z,10.00
2018-03-28T22:05:12.101Z,10.00
2018-03-28T22:07:40.400Z,10.00
2018-03-28T22:10:08.710Z,10.00
2018-03-28T22:12:37.786Z,9.90
2018-03-28T22:15:06.103Z,9.90
2018-03-28T22:17:35.144Z,9.90
2018-03-28T22:20:03.470Z,9.90
2018-03-28T22:22:32.540Z,9.80
2018-03-28T22:25:00.812Z,9.80
2018-03-28T22:27:29.945Z,9.80
2018-03-28T22:29:59.001Z,9.80
2018-03-28T22:32:27.257Z,9.80
2018-03-28T22:34:55.656Z,9.80
2018-03-28T22:37:23.926Z,9.80
2018-03-28T22:39:52.243Z,9.80
2018-03-28T22:42:20.530Z,9.80
2018-03-28T22:44:49.647Z,9.80
2018-03-28T22:47:17.905Z,9.80
2018-03-28T22:49:46.959Z,9.90
2018-03-28T22:52:15.697Z,9.90
2018-03-28T22:54:44.807Z,9.90
2018-03-28T22:57:13.086Z,9.90
2018-03-28T22:59:41.373Z,9.90
2018-03-28T23:02:09.678Z,9.90
2018-03-28T23:04:37.970Z,10.00
2018-03-28T23:07:06.294Z,10.00
2018-03-28T23:09:34.578Z,10.00
2018-03-28T23:12:02.875Z,10.00
2018-03-28T23:14:31.207Z,10.00
2018-03-28T23:16:59.483Z,10.00
2018-03-28T23:19:28.542Z,10.00
2018-03-28T23:21:56.875Z,10.00
2018-03-28T23:24:25.933Z,10.00
2018-03-28T23:26:54.220Z,10.00
2018-03-28T23:29:22.586Z,10.00
2018-03-28T23:31:50.850Z,10.00
2018-03-28T23:34:19.141Z,10.00
2018-03-28T23:36:48.311Z,10.00
2018-03-28T23:39:16.598Z,10.00
2018-03-28T23:41:44.942Z,10.00
2018-03-28T23:44:13.217Z,10.10
2018-03-28T23:46:42.267Z,10.10
2018-03-28T23:49:10.586Z,10.20
2018-03-28T23:51:39.692Z,10.20
2018-03-28T23:54:08.013Z,10.20
2018-03-28T23:56:36.301Z,10.20
2018-03-28T23:59:04.587Z,10.20
